WAAA/UPG METAR and TAF weather

Enter ICAO airport designator
Station Type Date Time Source
WAAA METAR 2022/01/29 13:30 UTC NOAA

WAAA 291330Z 11004KT 8000 FEW019 24/24 Q1011 NOSIG


Station Type Date Time Source
WAAA Decoded METAR 2022/01/29 13:30 UTC NOAA

Ujung Pandang / Hasanuddin, Indonesia (WAAA) 05-04S 119-33E 14M
Jan 29, 2022 - 08:30 AM EST / 2022.01.29 1330 UTC
Wind: from the ESE (110 degrees) at 5 MPH (4 KT):0
Visibility: 4 mile(s):0
Sky conditions: mostly clear
Temperature: 75 F (24 C)
Dew Point: 75 F (24 C)
Relative Humidity: 100%
Pressure (altimeter): 29.85 in. Hg (1011 hPa)
ob: WAAA 291330Z 11004KT 8000 FEW019 24/24 Q1011 NOSIG
cycle: 13

Station Type Date Time Source
WAAA TAF 2022/01/29 12:57 UTC NOAA

TAF TAF WAAA 291100Z 2912/3018 09004KT 8000 SCT019
BECMG 3000/3002 32010KT

Example: see airport list